Risingsun, Ohio
Current Conditions -  °F | °C
As of 1:53 PM on Tuesday 21 Oct 2014 (Local Time) from KTDZ Reporting Station
Overcast Overcast  
Wind Chill:   Ceiling: 2600
Heat Index:   Visibility: 10mi
Dew Point:   Wind: 10mph
Humidity: 69%   Direction: 360°N
Pressure: 30.06"   Gusts: NA
Location:  41.27°N, 83.42°W
Report Text: KTDZ 211753Z AUTO 36009KT 10SM OVC026 09/04 A3006 RMK AO2 SLP180 60000 T00940039 10106 20094 51014 TSNO
Loading
Personal Weather Stations






























Interactive Weather Map
Tropical Storm Tracking
New forecast layout! Learn more

10-Day Weather Forecast

Advertisements
Track Severe Weather on mobile